createdAt,value
2019-02-06T00:00:41.719Z,4.84
2019-02-06T00:03:14.009Z,5.02
2019-02-06T00:05:44.736Z,5.09
2019-02-06T00:08:15.371Z,5.03
2019-02-06T00:10:45.990Z,4.94
2019-02-06T00:13:16.329Z,4.88
2019-02-06T00:15:46.947Z,4.98
2019-02-06T00:18:17.331Z,5.02
2019-02-06T00:20:47.951Z,4.90
2019-02-06T00:23:18.551Z,4.96
2019-02-06T00:25:49.254Z,5.03
2019-02-06T00:28:19.881Z,4.90
2019-02-06T00:30:51.031Z,4.94
2019-02-06T00:33:21.615Z,4.91
2019-02-06T00:35:52.390Z,4.94
2019-02-06T00:38:22.650Z,4.93
2019-02-06T00:40:53.359Z,4.94
2019-02-06T00:43:23.975Z,4.96
2019-02-06T00:45:55.063Z,4.92
2019-02-06T00:48:25.703Z,4.88
2019-02-06T00:50:55.980Z,4.94
2019-02-06T00:53:26.593Z,4.86
2019-02-06T00:55:57.141Z,4.78
2019-02-06T00:58:27.716Z,4.87
2019-02-06T01:00:58.298Z,4.94
2019-02-06T01:03:28.951Z,4.98
2019-02-06T01:05:59.560Z,5.05
2019-02-06T01:08:30.086Z,4.92
2019-02-06T01:11:00.554Z,4.95
2019-02-06T01:13:31.136Z,5.01
2019-02-06T01:16:01.778Z,5.11
2019-02-06T01:18:32.332Z,4.98
2019-02-06T01:21:02.866Z,5.02
2019-02-06T01:23:33.602Z,5.04
2019-02-06T01:26:04.633Z,4.98
2019-02-06T01:28:35.349Z,4.96
2019-02-06T01:31:07.537Z,5.05
2019-02-06T01:33:38.248Z,4.90
2019-02-06T01:36:08.882Z,5.00
2019-02-06T01:38:39.642Z,4.86
2019-02-06T01:41:10.482Z,5.04
2019-02-06T01:43:41.211Z,5.04
2019-02-06T01:46:11.917Z,5.04
2019-02-06T01:48:42.544Z,5.02
2019-02-06T01:51:13.208Z,5.02
2019-02-06T01:53:44.454Z,4.92
2019-02-06T01:56:15.086Z,5.00
2019-02-06T01:58:45.715Z,4.95
2019-02-06T02:01:16.552Z,5.02
2019-02-06T02:03:47.186Z,5.10
2019-02-06T02:06:18.013Z,5.06
2019-02-06T02:08:50.422Z,4.96
2019-02-06T02:11:21.018Z,4.95
2019-02-06T02:13:51.761Z,4.82
2019-02-06T02:16:23.517Z,4.95
2019-02-06T02:18:53.832Z,4.84
2019-02-06T02:21:24.771Z,4.88
2019-02-06T02:23:55.608Z,4.80
2019-02-06T02:26:26.338Z,5.00
2019-02-06T02:28:56.971Z,4.82
2019-02-06T02:31:27.616Z,4.84
2019-02-06T02:33:59.972Z,5.02
2019-02-06T02:36:30.540Z,4.79
2019-02-06T02:39:01.251Z,4.88
2019-02-06T02:41:31.588Z,4.86
2019-02-06T02:44:02.343Z,4.85
2019-02-06T02:46:32.724Z,4.92
2019-02-06T02:49:03.475Z,4.80
2019-02-06T02:51:33.977Z,5.00
2019-02-06T02:54:04.602Z,4.96
2019-02-06T02:56:35.344Z,4.88
2019-02-06T02:59:06.017Z,4.84
2019-02-06T03:01:50.747Z,4.94
2019-02-06T03:04:23.029Z,4.83
2019-02-06T03:06:53.652Z,4.97
2019-02-06T03:09:24.192Z,4.90
2019-02-06T03:11:55.316Z,4.72
2019-02-06T03:14:27.514Z,4.78
2019-02-06T03:16:57.705Z,5.02
2019-02-06T03:19:27.966Z,5.00
2019-02-06T03:21:58.571Z,5.00
2019-02-06T03:24:29.293Z,4.90
2019-02-06T03:26:59.823Z,4.90
2019-02-06T03:29:30.462Z,4.90
2019-02-06T03:32:01.007Z,4.92
2019-02-06T03:34:31.745Z,4.91
2019-02-06T03:37:02.250Z,5.02
2019-02-06T03:39:33.315Z,5.02
2019-02-06T03:42:03.940Z,5.02
2019-02-06T03:44:34.569Z,4.81
2019-02-06T03:47:05.208Z,5.00
2019-02-06T03:49:35.831Z,4.92
2019-02-06T03:52:06.365Z,5.02
2019-02-06T03:54:37.111Z,4.94
2019-02-06T03:57:07.630Z,4.97
2019-02-06T03:59:38.343Z,4.93
2019-02-06T04:02:08.895Z,4.95
2019-02-06T04:04:39.523Z,4.94
2019-02-06T04:07:10.258Z,5.14
2019-02-06T04:09:40.892Z,5.02
2019-02-06T04:12:11.190Z,5.22
2019-02-06T04:14:42.154Z,5.12
2019-02-06T04:17:12.665Z,4.98
2019-02-06T04:19:42.973Z,4.92
2019-02-06T04:22:13.636Z,4.89
2019-02-06T04:24:44.269Z,4.88
2019-02-06T04:27:14.573Z,5.16
2019-02-06T04:29:44.848Z,4.96
2019-02-06T04:32:15.444Z,5.02
2019-02-06T04:34:46.575Z,4.90
2019-02-06T04:37:17.096Z,4.86
2019-02-06T04:39:47.652Z,4.91
2019-02-06T04:42:18.178Z,4.93
2019-02-06T04:44:48.953Z,4.74
2019-02-06T04:47:19.603Z,4.64
2019-02-06T04:49:50.386Z,4.58
2019-02-06T04:52:20.983Z,4.56
2019-02-06T04:54:51.216Z,4.54
2019-02-06T04:57:21.962Z,4.66
2019-02-06T04:59:52.594Z,4.54
2019-02-06T05:02:23.615Z,4.50
2019-02-06T05:04:54.181Z,4.46
2019-02-06T05:07:24.899Z,4.43
2019-02-06T05:09:55.534Z,4.38
2019-02-06T05:12:26.221Z,4.34
2019-02-06T05:14:56.960Z,4.30
2019-02-06T05:17:29.451Z,4.28
2019-02-06T05:20:05.967Z,4.22
2019-02-06T05:22:36.607Z,4.19
2019-02-06T05:25:08.876Z,4.15
2019-02-06T05:27:41.891Z,4.11
2019-02-06T05:30:13.727Z,4.12
2019-02-06T05:32:44.331Z,4.10
2019-02-06T05:35:15.166Z,4.05
2019-02-06T05:37:45.928Z,4.01
2019-02-06T05:40:16.556Z,3.96
2019-02-06T05:42:49.026Z,3.96
2019-02-06T05:45:20.710Z,3.94
2019-02-06T05:47:51.399Z,3.92
2019-02-06T05:50:22.276Z,3.91
2019-02-06T05:52:54.549Z,3.83
2019-02-06T05:55:26.881Z,3.89
2019-02-06T05:57:57.486Z,3.80
2019-02-06T06:00:29.676Z,3.78
2019-02-06T06:03:00.406Z,3.80
2019-02-06T06:05:31.039Z,3.74
2019-02-06T06:08:01.917Z,3.77
2019-02-06T06:10:32.605Z,3.72
2019-02-06T06:13:03.349Z,3.71
2019-02-06T06:15:34.106Z,3.68
2019-02-06T06:18:04.810Z,3.68
2019-02-06T06:20:35.546Z,3.62
2019-02-06T06:23:05.905Z,3.60
2019-02-06T06:25:36.603Z,3.55
2019-02-06T06:28:07.151Z,3.52
2019-02-06T06:30:37.865Z,3.53
2019-02-06T06:33:08.400Z,3.52
2019-02-06T06:35:39.140Z,3.54
2019-02-06T06:38:10.190Z,3.60
2019-02-06T06:40:40.944Z,3.49
2019-02-06T06:43:11.292Z,3.51
2019-02-06T06:45:42.078Z,3.46
2019-02-06T06:48:12.803Z,3.44
2019-02-06T06:50:43.541Z,3.47
2019-02-06T06:53:14.084Z,3.45
2019-02-06T06:55:44.706Z,3.44
2019-02-06T06:58:18.949Z,3.44
2019-02-06T07:00:49.562Z,3.56
2019-02-06T07:03:20.487Z,3.60
2019-02-06T07:05:51.112Z,3.67
2019-02-06T07:08:21.880Z,3.70
2019-02-06T07:10:52.619Z,3.72
2019-02-06T07:13:23.345Z,3.70
2019-02-06T07:15:54.080Z,3.62
2019-02-06T07:18:25.086Z,3.68
2019-02-06T07:20:55.755Z,3.78
2019-02-06T07:23:26.037Z,3.74
2019-02-06T07:25:56.700Z,3.86
2019-02-06T07:28:27.335Z,3.70
2019-02-06T07:30:57.963Z,3.88
2019-02-06T07:33:30.478Z,3.78
2019-02-06T07:36:01.454Z,3.80
2019-02-06T07:38:32.116Z,3.78
2019-02-06T07:41:06.520Z,3.79
2019-02-06T07:43:38.596Z,3.84
2019-02-06T07:46:09.435Z,3.87
2019-02-06T07:48:40.040Z,3.82
2019-02-06T07:51:10.700Z,3.75
2019-02-06T07:53:42.968Z,3.82
2019-02-06T07:56:13.679Z,3.88
2019-02-06T07:58:45.557Z,3.89
2019-02-06T08:01:16.291Z,3.94
2019-02-06T08:03:46.917Z,4.10
2019-02-06T08:06:17.646Z,4.02
2019-02-06T08:08:48.327Z,3.94
2019-02-06T08:11:21.513Z,3.98
2019-02-06T08:13:51.386Z,3.80
2019-02-06T08:16:22.123Z,3.98
2019-02-06T08:18:54.936Z,3.96
2019-02-06T08:21:25.779Z,4.08
2019-02-06T08:23:56.503Z,4.08
2019-02-06T08:26:27.246Z,3.92
2019-02-06T08:28:57.933Z,4.04
2019-02-06T08:31:28.844Z,3.89
2019-02-06T08:33:59.421Z,4.02
2019-02-06T08:36:32.305Z,4.10
2019-02-06T08:39:06.124Z,4.18
2019-02-06T08:41:37.886Z,4.20
2019-02-06T08:44:12.316Z,4.16
2019-02-06T08:46:43.042Z,4.20
2019-02-06T08:49:13.885Z,4.31
2019-02-06T08:51:44.590Z,4.25
2019-02-06T08:54:14.858Z,4.32
2019-02-06T08:56:45.575Z,4.38
2019-02-06T08:59:16.949Z,4.56
2019-02-06T09:01:50.060Z,4.62
2019-02-06T09:04:23.264Z,4.73
2019-02-06T09:06:54.008Z,4.77
2019-02-06T09:09:26.352Z,4.92
2019-02-06T09:11:57.196Z,4.98
2019-02-06T09:14:27.852Z,5.02
2019-02-06T09:16:58.884Z,4.86
2019-02-06T09:19:34.355Z,5.00
2019-02-06T09:22:07.790Z,5.12
2019-02-06T09:24:38.482Z,5.14
2019-02-06T09:27:09.110Z,4.97
2019-02-06T09:29:40.417Z,5.16
2019-02-06T09:32:11.465Z,4.92
2019-02-06T09:34:42.161Z,5.09
2019-02-06T09:37:12.860Z,4.94
2019-02-06T09:39:43.514Z,5.06
2019-02-06T09:42:14.116Z,5.03
2019-02-06T09:44:46.240Z,5.16
2019-02-06T09:47:16.624Z,5.38
2019-02-06T09:49:49.801Z,5.48
2019-02-06T09:52:19.724Z,5.44
2019-02-06T09:54:50.483Z,5.62
2019-02-06T09:57:21.800Z,5.44
2019-02-06T09:59:52.726Z,5.66
2019-02-06T10:02:23.711Z,5.60
2019-02-06T10:04:54.455Z,5.78
2019-02-06T10:07:25.172Z,5.66
2019-02-06T10:09:57.936Z,5.73
2019-02-06T10:12:28.283Z,5.52
2019-02-06T10:14:58.809Z,5.80
2019-02-06T10:17:29.562Z,5.74
2019-02-06T10:20:00.352Z,5.70
2019-02-06T10:22:31.008Z,5.84
2019-02-06T10:25:03.397Z,5.58
2019-02-06T10:27:34.741Z,5.81
2019-02-06T10:30:14.940Z,5.72
2019-02-06T10:32:45.957Z,5.56
2019-02-06T10:35:17.472Z,5.40
2019-02-06T10:37:47.842Z,5.71
2019-02-06T10:40:19.048Z,5.68
2019-02-06T10:42:49.686Z,5.88
2019-02-06T10:45:21.252Z,5.81
2019-02-06T10:47:52.383Z,6.05
2019-02-06T10:50:38.085Z,5.98
2019-02-06T10:53:09.953Z,6.21
2019-02-06T10:55:40.389Z,6.27
2019-02-06T10:58:11.394Z,6.32
2019-02-06T11:00:50.646Z,6.44
2019-02-06T11:03:20.947Z,6.32
2019-02-06T11:05:51.233Z,6.26
2019-02-06T11:08:22.204Z,6.58
2019-02-06T11:10:52.909Z,6.54
2019-02-06T11:13:23.604Z,6.58
2019-02-06T11:15:54.215Z,6.66
2019-02-06T11:18:24.938Z,6.68
2019-02-06T11:20:57.211Z,6.74
2019-02-06T11:23:33.112Z,6.93
2019-02-06T11:26:06.047Z,7.02
2019-02-06T11:28:38.215Z,7.08
2019-02-06T11:31:09.565Z,7.25
2019-02-06T11:33:51.310Z,7.18
2019-02-06T11:36:24.455Z,7.34
2019-02-06T11:38:54.712Z,7.18
2019-02-06T11:41:25.047Z,7.50
2019-02-06T11:43:56.082Z,7.33
2019-02-06T11:46:26.796Z,7.26
2019-02-06T11:48:59.151Z,7.32
2019-02-06T11:51:30.209Z,7.13
2019-02-06T11:54:00.927Z,7.28
2019-02-06T11:56:31.599Z,7.12
2019-02-06T11:59:02.298Z,7.05
2019-02-06T12:01:33.457Z,6.99
2019-02-06T12:04:03.824Z,6.92
2019-02-06T12:06:34.214Z,6.81
2019-02-06T12:09:08.710Z,6.97
2019-02-06T12:11:41.101Z,6.96
2019-02-06T12:14:11.726Z,6.94
2019-02-06T12:16:42.467Z,7.15
2019-02-06T12:19:13.114Z,7.22
2019-02-06T12:21:43.955Z,7.28
2019-02-06T12:24:14.664Z,7.34
2019-02-06T12:26:45.444Z,7.35
2019-02-06T12:29:16.529Z,7.60
2019-02-06T12:31:47.268Z,7.45
2019-02-06T12:34:17.648Z,7.74
2019-02-06T12:36:48.464Z,7.46
2019-02-06T12:39:19.186Z,7.54
2019-02-06T12:41:49.994Z,7.55
2019-02-06T12:44:21.174Z,7.52
2019-02-06T12:46:51.809Z,7.29
2019-02-06T12:49:23.152Z,7.32
2019-02-06T12:51:53.501Z,7.21
2019-02-06T12:54:24.195Z,7.34
2019-02-06T12:56:55.013Z,7.43
2019-02-06T12:59:27.735Z,7.21
2019-02-06T13:01:58.383Z,7.22
2019-02-06T13:04:34.656Z,7.18
2019-02-06T13:07:01.353Z,7.18
2019-02-06T13:09:34.147Z,7.20
2019-02-06T13:12:05.049Z,7.48
2019-02-06T13:14:35.865Z,7.56
2019-02-06T13:17:07.087Z,7.59
2019-02-06T13:19:37.791Z,7.30
2019-02-06T13:22:08.694Z,7.34
2019-02-06T13:24:41.161Z,7.44
2019-02-06T13:27:12.438Z,7.46
2019-02-06T13:29:46.431Z,7.56
2019-02-06T13:32:17.381Z,7.46
2019-02-06T13:34:48.158Z,7.60
2019-02-06T13:37:19.166Z,7.37
2019-02-06T13:39:49.999Z,7.38
2019-02-06T13:42:20.614Z,7.34
2019-02-06T13:44:51.434Z,7.32
2019-02-06T13:47:22.346Z,7.55
2019-02-06T13:49:54.591Z,7.48
2019-02-06T13:52:25.481Z,7.26
2019-02-06T13:54:55.952Z,7.24
2019-02-06T13:57:33.704Z,7.34
2019-02-06T14:00:01.222Z,7.30
2019-02-06T14:02:33.495Z,7.22
2019-02-06T14:05:04.175Z,7.05
2019-02-06T14:07:34.538Z,7.23
2019-02-06T14:10:09.019Z,7.35
2019-02-06T14:12:39.762Z,7.25
2019-02-06T14:15:13.733Z,7.16
2019-02-06T14:17:44.403Z,7.08
2019-02-06T14:20:17.752Z,7.12
2019-02-06T14:22:51.749Z,7.00
2019-02-06T14:25:31.637Z,6.88
2019-02-06T14:28:11.640Z,6.74
2019-02-06T14:31:13.865Z,6.57
2019-02-06T14:33:59.752Z,6.60
2019-02-06T14:36:39.456Z,6.38
2019-02-06T14:39:31.771Z,6.51
2019-02-06T14:42:30.212Z,6.52
2019-02-06T14:45:33.036Z,6.30
2019-02-06T14:48:10.055Z,6.14
2019-02-06T14:50:44.076Z,6.16
2019-02-06T14:53:39.152Z,6.22
2019-02-06T14:56:21.757Z,6.19
2019-02-06T14:59:10.649Z,5.92
2019-02-06T15:01:53.545Z,5.84
2019-02-06T15:04:36.050Z,5.83
2019-02-06T15:07:15.715Z,5.96
2019-02-06T15:10:04.745Z,5.90
2019-02-06T15:12:50.548Z,5.83
2019-02-06T15:15:47.088Z,5.89
2019-02-06T15:18:42.036Z,5.83
2019-02-06T15:21:21.168Z,5.70
2019-02-06T15:24:19.284Z,5.70
2019-02-06T15:27:21.694Z,5.64
2019-02-06T15:30:01.960Z,5.56
2019-02-06T15:32:53.938Z,5.59
2019-02-06T15:35:33.547Z,5.64
2019-02-06T15:38:17.028Z,5.47
2019-02-06T15:41:09.207Z,5.52
2019-02-06T15:43:58.319Z,5.58
2019-02-06T15:46:32.274Z,5.55
2019-02-06T15:49:20.583Z,5.48
2019-02-06T15:52:06.670Z,5.35
2019-02-06T15:55:05.893Z,5.26
2019-02-06T15:57:56.196Z,5.31
2019-02-06T16:00:42.159Z,5.32
2019-02-06T16:03:29.372Z,5.42
2019-02-06T16:06:16.860Z,5.36
2019-02-06T16:08:59.568Z,5.28
2019-02-06T16:11:45.222Z,5.42
2019-02-06T16:14:21.718Z,5.32
2019-02-06T16:17:04.415Z,5.20
2019-02-06T16:19:38.310Z,5.20
2019-02-06T16:22:11.926Z,5.16
2019-02-06T16:24:48.737Z,5.12
2019-02-06T16:27:28.071Z,5.28
2019-02-06T16:30:25.704Z,5.26
2019-02-06T16:33:15.127Z,5.32
2019-02-06T16:36:03.988Z,5.38
2019-02-06T16:38:40.969Z,5.44
2019-02-06T16:41:23.778Z,5.48
2019-02-06T16:44:16.041Z,5.46
2019-02-06T16:47:13.342Z,5.46
2019-02-06T16:49:58.603Z,5.44
2019-02-06T16:52:44.614Z,5.46
2019-02-06T16:55:31.043Z,5.38
2019-02-06T16:58:16.873Z,5.27
2019-02-06T17:00:53.423Z,5.34
2019-02-06T17:04:00.936Z,5.42
2019-02-06T17:06:50.818Z,5.42
2019-02-06T17:09:41.719Z,5.46
2019-02-06T17:12:38.905Z,5.40
2019-02-06T17:15:18.932Z,5.46
2019-02-06T17:18:07.973Z,5.43
2019-02-06T17:21:06.670Z,5.54
2019-02-06T17:23:43.988Z,5.40
2019-02-06T17:26:31.676Z,5.56
2019-02-06T17:29:14.570Z,5.55
2019-02-06T17:32:15.555Z,5.61
2019-02-06T17:34:50.067Z,5.47
2019-02-06T17:37:48.598Z,5.46
2019-02-06T17:40:22.881Z,5.56
2019-02-06T17:42:57.349Z,5.49
2019-02-06T17:45:47.993Z,5.51
2019-02-06T17:48:41.091Z,5.52
2019-02-06T17:51:33.137Z,5.42
2019-02-06T17:54:12.447Z,5.46
2019-02-06T17:56:43.779Z,5.51
2019-02-06T17:59:14.576Z,5.47
2019-02-06T18:01:45.415Z,5.44
2019-02-06T18:04:16.147Z,5.50
2019-02-06T18:06:46.883Z,5.58
2019-02-06T18:09:17.899Z,5.56
2019-02-06T18:11:48.840Z,5.54
2019-02-06T18:14:19.588Z,5.50
2019-02-06T18:16:50.618Z,5.56
2019-02-06T18:19:21.840Z,5.69
2019-02-06T18:21:53.282Z,5.67
2019-02-06T18:24:24.049Z,5.76
2019-02-06T18:26:54.950Z,5.76
2019-02-06T18:29:25.613Z,5.56
2019-02-06T18:31:55.980Z,5.58
2019-02-06T18:34:26.663Z,5.68
2019-02-06T18:36:57.607Z,5.78
2019-02-06T18:39:28.331Z,5.74
2019-02-06T18:41:58.773Z,5.70
2019-02-06T18:44:29.517Z,5.86
2019-02-06T18:47:01.624Z,5.87
2019-02-06T18:49:32.607Z,5.88
2019-02-06T18:52:03.880Z,5.96
2019-02-06T18:54:35.224Z,5.98
2019-02-06T18:57:06.954Z,6.03
2019-02-06T18:59:38.081Z,5.85
2019-02-06T19:02:09.230Z,5.93
2019-02-06T19:04:41.441Z,5.92
2019-02-06T19:07:12.746Z,5.84
2019-02-06T19:09:44.317Z,6.04
2019-02-06T19:12:15.428Z,5.92
2019-02-06T19:14:46.677Z,5.98
2019-02-06T19:17:17.710Z,5.93
2019-02-06T19:19:48.920Z,5.92
2019-02-06T19:22:20.618Z,5.96
2019-02-06T19:24:52.589Z,5.96
2019-02-06T19:27:23.787Z,5.94
2019-02-06T19:29:55.461Z,5.74
2019-02-06T19:32:27.216Z,5.92
2019-02-06T19:34:58.772Z,5.90
2019-02-06T19:37:29.816Z,6.01
2019-02-06T19:40:00.802Z,5.99
2019-02-06T19:42:32.523Z,5.94
2019-02-06T19:45:04.337Z,6.08
2019-02-06T19:47:36.021Z,5.87
2019-02-06T19:50:13.520Z,5.97
2019-02-06T19:52:45.299Z,5.83
2019-02-06T19:55:18.108Z,5.84
2019-02-06T19:57:51.204Z,5.75
2019-02-06T20:00:28.265Z,5.56
2019-02-06T20:03:00.206Z,5.64
2019-02-06T20:05:32.271Z,5.54
2019-02-06T20:08:04.519Z,5.52
2019-02-06T20:10:54.087Z,5.56
2019-02-06T20:13:25.461Z,5.54
2019-02-06T20:15:57.398Z,5.51
2019-02-06T20:18:29.190Z,5.46
2019-02-06T20:21:01.180Z,5.43
2019-02-06T20:23:33.169Z,5.47
2019-02-06T20:26:05.019Z,5.44
2019-02-06T20:28:36.390Z,5.60
2019-02-06T20:31:07.759Z,5.39
2019-02-06T20:33:39.674Z,5.38
2019-02-06T20:36:12.790Z,5.44
2019-02-06T20:38:44.414Z,5.36
2019-02-06T20:41:15.771Z,5.44
2019-02-06T20:43:47.434Z,5.45
2019-02-06T20:46:20.225Z,5.40
2019-02-06T20:48:51.735Z,5.37
2019-02-06T20:51:24.133Z,5.23
2019-02-06T20:53:55.390Z,5.32
2019-02-06T20:56:25.925Z,5.12
2019-02-06T20:58:56.690Z,5.14
2019-02-06T21:01:27.888Z,5.30
2019-02-06T21:03:59.174Z,5.32
2019-02-06T21:06:36.294Z,5.23
2019-02-06T21:09:10.601Z,5.37
2019-02-06T21:11:41.945Z,5.27
2019-02-06T21:14:13.925Z,5.38
2019-02-06T21:16:45.098Z,5.37
2019-02-06T21:19:16.937Z,5.40
2019-02-06T21:21:47.868Z,5.38
2019-02-06T21:24:19.490Z,5.36
2019-02-06T21:26:51.021Z,5.36
2019-02-06T21:29:22.766Z,5.34
2019-02-06T21:31:55.986Z,5.18
2019-02-06T21:34:27.176Z,5.24
2019-02-06T21:36:58.106Z,5.31
2019-02-06T21:39:29.053Z,5.27
2019-02-06T21:42:00.243Z,5.22
2019-02-06T21:44:31.701Z,5.35
2019-02-06T21:47:02.312Z,5.08
2019-02-06T21:49:34.170Z,5.16
2019-02-06T21:52:05.276Z,5.22
2019-02-06T21:54:36.960Z,5.24
2019-02-06T21:57:08.845Z,5.20
2019-02-06T21:59:40.129Z,5.26
2019-02-06T22:02:11.368Z,5.27
2019-02-06T22:04:42.149Z,5.25
2019-02-06T22:07:13.056Z,5.18
2019-02-06T22:09:45.793Z,5.24
2019-02-06T22:12:16.480Z,5.29
2019-02-06T22:14:47.791Z,5.24
2019-02-06T22:17:18.616Z,5.18
2019-02-06T22:19:49.347Z,5.24
2019-02-06T22:22:21.537Z,5.38
2019-02-06T22:24:52.686Z,5.45
2019-02-06T22:27:23.951Z,5.40
2019-02-06T22:29:55.308Z,5.46
2019-02-06T22:32:26.350Z,5.42
2019-02-06T22:34:58.113Z,5.50
2019-02-06T22:37:29.044Z,5.23
2019-02-06T22:40:00.800Z,5.36
2019-02-06T22:42:32.008Z,5.33
2019-02-06T22:45:03.451Z,5.42
2019-02-06T22:47:34.950Z,5.40
2019-02-06T22:50:09.092Z,5.48
2019-02-06T22:52:40.706Z,5.54
2019-02-06T22:55:13.593Z,5.57
2019-02-06T22:57:44.778Z,5.60
2019-02-06T23:00:24.788Z,5.59
2019-02-06T23:02:55.587Z,5.65
2019-02-06T23:05:26.313Z,5.64
2019-02-06T23:07:57.366Z,5.52
2019-02-06T23:10:28.241Z,5.46
2019-02-06T23:12:59.632Z,5.63
2019-02-06T23:15:30.525Z,5.66
2019-02-06T23:18:01.268Z,5.62
2019-02-06T23:20:31.664Z,5.71
2019-02-06T23:23:02.258Z,5.58
2019-02-06T23:25:32.723Z,5.60
2019-02-06T23:28:03.354Z,5.67
2019-02-06T23:30:34.490Z,5.68
2019-02-06T23:33:05.399Z,5.70
2019-02-06T23:35:36.247Z,5.68
2019-02-06T23:38:07.013Z,5.64
2019-02-06T23:40:37.707Z,5.68
2019-02-06T23:43:09.509Z,5.65
2019-02-06T23:45:40.189Z,5.54
2019-02-06T23:48:25.523Z,5.59
2019-02-06T23:50:56.333Z,5.50
2019-02-06T23:53:27.603Z,5.52
2019-02-06T23:55:58.018Z,5.50
2019-02-06T23:58:28.407Z,5.58
